Factoryville, New York
Current Conditions -  °F | °C
As of 2:15 PM on Friday 21 Nov 2014 (Local Time) from K6B0 Reporting Station
Clear Clear  
Wind Chill: 20°   Ceiling: Unl
Heat Index: 28°   Visibility: 10mi
Dew Point:   Wind: 8mph
Humidity: 35%   Direction: 340°NNW
Pressure: 30.22"   Gusts: NA
Location:  43.9506°N, 73.5319°W
Report Text: K6B0 211915Z AUTO 34007KT 10SM CLR M02/M16 A3022 RMK AO2 T10201156
Loading
Personal Weather Stations






























Interactive Weather Map New forecast layout! Learn more

10-Day Weather Forecast

Advertisements
Track Severe Weather on mobile